sensor_id;sensor_type;location;lat;lon;timestamp;pressure;altitude;pressure_sealevel;temperature;humidity
19447;BME280;9862;49.462;11.054;2023-04-27T00:01:26;98228.66;;;9.90;100.00
19447;BME280;9862;49.462;11.054;2023-04-27T00:03:53;98219.03;;;9.89;100.00
19447;BME280;9862;49.462;11.054;2023-04-27T00:06:21;98218.06;;;9.97;100.00
19447;BME280;9862;49.462;11.054;2023-04-27T00:08:49;98222.56;;;9.96;100.00
19447;BME280;9862;49.462;11.054;2023-04-27T00:11:15;98217.22;;;10.03;100.00
19447;BME280;9862;49.462;11.054;2023-04-27T00:13:42;98220.94;;;10.09;100.00
19447;BME280;9862;49.462;11.054;2023-04-27T00:16:08;98214.63;;;10.16;100.00
19447;BME280;9862;49.462;11.054;2023-04-27T00:18:35;98211.19;;;10.22;100.00
19447;BME280;9862;49.462;11.054;2023-04-27T00:21:02;98211.00;;;10.24;100.00
19447;BME280;9862;49.462;11.054;2023-04-27T00:23:29;98216.31;;;10.30;100.00
19447;BME280;9862;49.462;11.054;2023-04-27T00:25:57;98209.97;;;10.31;100.00
19447;BME280;9862;49.462;11.054;2023-04-27T00:28:23;98201.41;;;10.36;100.00
19447;BME280;9862;49.462;11.054;2023-04-27T00:30:50;98201.19;;;10.38;100.00
19447;BME280;9862;49.462;11.054;2023-04-27T00:33:19;98194.41;;;10.42;100.00
19447;BME280;9862;49.462;11.054;2023-04-27T00:35:46;98192.00;;;10.47;100.00
19447;BME280;9862;49.462;11.054;2023-04-27T00:38:12;98191.19;;;10.53;100.00
19447;BME280;9862;49.462;11.054;2023-04-27T00:40:39;98193.63;;;10.54;100.00
19447;BME280;9862;49.462;11.054;2023-04-27T00:43:07;98190.34;;;10.59;100.00
19447;BME280;9862;49.462;11.054;2023-04-27T00:45:36;98194.63;;;10.60;100.00
19447;BME280;9862;49.462;11.054;2023-04-27T00:48:06;98191.59;;;10.63;100.00
19447;BME280;9862;49.462;11.054;2023-04-27T00:50:33;98192.63;;;10.62;100.00
19447;BME280;9862;49.462;11.054;2023-04-27T00:53:00;98189.97;;;10.62;100.00
19447;BME280;9862;49.462;11.054;2023-04-27T00:55:27;98187.91;;;10.64;100.00
19447;BME280;9862;49.462;11.054;2023-04-27T00:57:53;98186.47;;;10.62;100.00
19447;BME280;9862;49.462;11.054;2023-04-27T01:00:22;98182.97;;;10.61;100.00
19447;BME280;9862;49.462;11.054;2023-04-27T01:02:49;98178.50;;;10.62;100.00
19447;BME280;9862;49.462;11.054;2023-04-27T01:05:17;98179.91;;;10.64;100.00
19447;BME280;9862;49.462;11.054;2023-04-27T01:07:44;98188.72;;;10.65;100.00
19447;BME280;9862;49.462;11.054;2023-04-27T01:10:10;98180.94;;;10.63;100.00
19447;BME280;9862;49.462;11.054;2023-04-27T01:12:37;98195.28;;;10.62;100.00
19447;BME280;9862;49.462;11.054;2023-04-27T01:15:05;98193.63;;;10.61;100.00
19447;BME280;9862;49.462;11.054;2023-04-27T01:17:33;98186.66;;;10.60;100.00
19447;BME280;9862;49.462;11.054;2023-04-27T01:20:00;98184.63;;;10.62;100.00
19447;BME280;9862;49.462;11.054;2023-04-27T01:22:26;98186.88;;;10.65;100.00
19447;BME280;9862;49.462;11.054;2023-04-27T01:24:54;98186.47;;;10.68;100.00
19447;BME280;9862;49.462;11.054;2023-04-27T01:27:21;98188.72;;;10.65;100.00
19447;BME280;9862;49.462;11.054;2023-04-27T01:29:47;98185.44;;;10.63;100.00
19447;BME280;9862;49.462;11.054;2023-04-27T01:32:14;98186.66;;;10.60;100.00
19447;BME280;9862;49.462;11.054;2023-04-27T01:34:41;98195.66;;;10.59;100.00
19447;BME280;9862;49.462;11.054;2023-04-27T01:37:08;98189.13;;;10.55;100.00
19447;BME280;9862;49.462;11.054;2023-04-27T01:39:34;98193.00;;;10.59;100.00
19447;BME280;9862;49.462;11.054;2023-04-27T01:42:02;98188.91;;;10.50;100.00
19447;BME280;9862;49.462;11.054;2023-04-27T01:44:29;98189.94;;;10.49;100.00
19447;BME280;9862;49.462;11.054;2023-04-27T01:46:56;98197.31;;;10.47;100.00
19447;BME280;9862;49.462;11.054;2023-04-27T01:49:22;98199.56;;;10.50;100.00
19447;BME280;9862;49.462;11.054;2023-04-27T01:51:49;98196.28;;;10.48;100.00
19447;BME280;9862;49.462;11.054;2023-04-27T01:54:16;98195.88;;;10.44;100.00
19447;BME280;9862;49.462;11.054;2023-04-27T01:56:42;98198.09;;;10.41;100.00
19447;BME280;9862;49.462;11.054;2023-04-27T01:59:10;98199.75;;;10.42;100.00
19447;BME280;9862;49.462;11.054;2023-04-27T02:01:37;98203.44;;;10.41;100.00
19447;BME280;9862;49.462;11.054;2023-04-27T02:04:04;98199.75;;;10.42;100.00
19447;BME280;9862;49.462;11.054;2023-04-27T02:06:30;98202.22;;;10.43;100.00
19447;BME280;9862;49.462;11.054;2023-04-27T02:08:57;98202.41;;;10.42;100.00
19447;BME280;9862;49.462;11.054;2023-04-27T02:11:23;98200.78;;;10.41;100.00
19447;BME280;9862;49.462;11.054;2023-04-27T02:13:50;98197.94;;;10.42;100.00
19447;BME280;9862;49.462;11.054;2023-04-27T02:16:20;98205.50;;;10.45;100.00
19447;BME280;9862;49.462;11.054;2023-04-27T02:18:49;98199.75;;;10.48;100.00
19447;BME280;9862;49.462;11.054;2023-04-27T02:21:19;98199.75;;;10.48;100.00
19447;BME280;9862;49.462;11.054;2023-04-27T02:23:47;98205.28;;;10.47;100.00
19447;BME280;9862;49.462;11.054;2023-04-27T02:26:17;98195.88;;;10.51;100.00
19447;BME280;9862;49.462;11.054;2023-04-27T02:28:48;98205.50;;;10.52;100.00
19447;BME280;9862;49.462;11.054;2023-04-27T02:31:15;98197.09;;;10.48;100.00
19447;BME280;9862;49.462;11.054;2023-04-27T02:33:43;98207.94;;;10.47;100.00
19447;BME280;9862;49.462;11.054;2023-04-27T02:36:09;98204.06;;;10.43;100.00
19447;BME280;9862;49.462;11.054;2023-04-27T02:38:36;98209.19;;;10.44;100.00
19447;BME280;9862;49.462;11.054;2023-04-27T02:41:02;98207.13;;;10.46;100.00
19447;BME280;9862;49.462;11.054;2023-04-27T02:43:29;98207.53;;;10.50;100.00
19447;BME280;9862;49.462;11.054;2023-04-27T02:45:56;98203.84;;;10.51;100.00
19447;BME280;9862;49.462;11.054;2023-04-27T02:48:27;98211.22;;;10.49;100.00
19447;BME280;9862;49.462;11.054;2023-04-27T02:50:55;98209.59;;;10.48;100.00
19447;BME280;9862;49.462;11.054;2023-04-27T02:53:22;98208.78;;;10.47;100.00
19447;BME280;9862;49.462;11.054;2023-04-27T02:55:48;98210.00;;;10.45;100.00
19447;BME280;9862;49.462;11.054;2023-04-27T02:58:15;98205.91;;;10.42;100.00
19447;BME280;9862;49.462;11.054;2023-04-27T03:00:42;98214.06;;;10.41;100.00
19447;BME280;9862;49.462;11.054;2023-04-27T03:03:09;98206.50;;;10.38;100.00
19447;BME280;9862;49.462;11.054;2023-04-27T03:05:36;98211.22;;;10.36;100.00
19447;BME280;9862;49.462;11.054;2023-04-27T03:08:04;98220.84;;;10.37;100.00
19447;BME280;9862;49.462;11.054;2023-04-27T03:10:30;98216.13;;;10.39;100.00
19447;BME280;9862;49.462;11.054;2023-04-27T03:12:57;98208.38;;;10.44;99.18
19447;BME280;9862;49.462;11.054;2023-04-27T03:15:24;98211.22;;;10.36;99.11
19447;BME280;9862;49.462;11.054;2023-04-27T03:17:50;98214.47;;;10.24;100.00
19447;BME280;9862;49.462;11.054;2023-04-27T03:20:17;98213.41;;;10.19;100.00
19447;BME280;9862;49.462;11.054;2023-04-27T03:22:43;98216.84;;;10.13;100.00
19447;BME280;9862;49.462;11.054;2023-04-27T03:25:11;98211.53;;;10.13;100.00
19447;BME280;9862;49.462;11.054;2023-04-27T03:27:38;98224.66;;;10.14;100.00
19447;BME280;9862;49.462;11.054;2023-04-27T03:30:06;98218.09;;;10.10;100.00
19447;BME280;9862;49.462;11.054;2023-04-27T03:32:32;98224.66;;;10.14;100.00
19447;BME280;9862;49.462;11.054;2023-04-27T03:34:59;98219.50;;;10.13;100.00
19447;BME280;9862;49.462;11.054;2023-04-27T03:37:27;98217.09;;;10.18;100.00
19447;BME280;9862;49.462;11.054;2023-04-27T03:39:54;98223.81;;;10.20;100.00
19447;BME280;9862;49.462;11.054;2023-04-27T03:42:21;98223.88;;;10.27;100.00
19447;BME280;9862;49.462;11.054;2023-04-27T03:44:48;98229.59;;;10.30;100.00
19447;BME280;9862;49.462;11.054;2023-04-27T03:47:15;98227.56;;;10.32;100.00
19447;BME280;9862;49.462;11.054;2023-04-27T03:49:41;98233.53;;;10.35;100.00
19447;BME280;9862;49.462;11.054;2023-04-27T03:52:08;98240.06;;;10.39;100.00
19447;BME280;9862;49.462;11.054;2023-04-27T03:54:34;98241.69;;;10.40;100.00
19447;BME280;9862;49.462;11.054;2023-04-27T03:57:01;98242.13;;;10.37;100.00
19447;BME280;9862;49.462;11.054;2023-04-27T03:59:30;98251.72;;;10.38;100.00
19447;BME280;9862;49.462;11.054;2023-04-27T04:01:56;98253.38;;;10.39;100.00
19447;BME280;9862;49.462;11.054;2023-04-27T04:04:23;98253.97;;;10.41;100.00
19447;BME280;9862;49.462;11.054;2023-04-27T04:06:49;98251.75;;;10.44;100.00
19447;BME280;9862;49.462;11.054;2023-04-27T04:09:16;98248.88;;;10.39;100.00
19447;BME280;9862;49.462;11.054;2023-04-27T04:11:42;98246.41;;;10.38;100.00
19447;BME280;9862;49.462;11.054;2023-04-27T04:14:09;98252.34;;;10.40;100.00
19447;BME280;9862;49.462;11.054;2023-04-27T04:16:37;98251.72;;;10.38;100.00
19447;BME280;9862;49.462;11.054;2023-04-27T04:19:03;98246.00;;;10.41;100.00
19447;BME280;9862;49.462;11.054;2023-04-27T04:21:30;98237.00;;;10.42;100.00
19447;BME280;9862;49.462;11.054;2023-04-27T04:23:57;98237.00;;;10.42;100.00
19447;BME280;9862;49.462;11.054;2023-04-27T04:26:23;98234.34;;;10.42;100.00
19447;BME280;9862;49.462;11.054;2023-04-27T04:28:51;98225.75;;;10.40;100.00
19447;BME280;9862;49.462;11.054;2023-04-27T04:31:18;98232.50;;;10.36;100.00
19447;BME280;9862;49.462;11.054;2023-04-27T04:33:47;98229.63;;;10.37;100.00
19447;BME280;9862;49.462;11.054;2023-04-27T04:36:13;98234.31;;;10.28;100.00
19447;BME280;9862;49.462;11.054;2023-04-27T04:38:40;98235.75;;;10.24;100.00
19447;BME280;9862;49.462;11.054;2023-04-27T04:41:06;98241.91;;;10.25;100.00
19447;BME280;9862;49.462;11.054;2023-04-27T04:43:34;98243.53;;;10.26;100.00
19447;BME280;9862;49.462;11.054;2023-04-27T04:46:01;98242.91;;;10.30;100.00
19447;BME280;9862;49.462;11.054;2023-04-27T04:48:27;98248.22;;;10.30;100.00
19447;BME280;9862;49.462;11.054;2023-04-27T04:50:55;98251.13;;;10.36;100.00
19447;BME280;9862;49.462;11.054;2023-04-27T04:53:22;98246.00;;;10.34;100.00
19447;BME280;9862;49.462;11.054;2023-04-27T04:55:49;98245.56;;;10.30;100.00
19447;BME280;9862;49.462;11.054;2023-04-27T04:58:15;98240.88;;;10.32;100.00
19447;BME280;9862;49.462;11.054;2023-04-27T05:00:42;98248.03;;;10.32;100.00
19447;BME280;9862;49.462;11.054;2023-04-27T05:03:08;98244.78;;;10.37;100.00
19447;BME280;9862;49.462;11.054;2023-04-27T05:05:35;98244.78;;;10.43;100.00
19447;BME280;9862;49.462;11.054;2023-04-27T05:08:03;98249.31;;;10.43;100.00
19447;BME280;9862;49.462;11.054;2023-04-27T05:10:30;98244.78;;;10.50;100.00
19447;BME280;9862;49.462;11.054;2023-04-27T05:12:57;98242.75;;;10.52;100.00
19447;BME280;9862;49.462;11.054;2023-04-27T05:15:23;98244.41;;;10.53;100.00
19447;BME280;9862;49.462;11.054;2023-04-27T05:17:50;98259.13;;;10.55;100.00
19447;BME280;9862;49.462;11.054;2023-04-27T05:20:18;98256.47;;;10.55;100.00
19447;BME280;9862;49.462;11.054;2023-04-27T05:22:44;98255.84;;;10.60;100.00
19447;BME280;9862;49.462;11.054;2023-04-27T05:25:13;98254.63;;;10.56;100.00
19447;BME280;9862;49.462;11.054;2023-04-27T05:27:39;98262.41;;;10.57;100.00
19447;BME280;9862;49.462;11.054;2023-04-27T05:30:07;98262.41;;;10.57;100.00
19447;BME280;9862;49.462;11.054;2023-04-27T05:32:35;98265.88;;;10.58;100.00
19447;BME280;9862;49.462;11.054;2023-04-27T05:35:02;98271.81;;;10.60;100.00
19447;BME280;9862;49.462;11.054;2023-04-27T05:37:29;98270.41;;;10.64;100.00
19447;BME280;9862;49.462;11.054;2023-04-27T05:39:56;98275.31;;;10.67;100.00
19447;BME280;9862;49.462;11.054;2023-04-27T05:42:23;98271.41;;;10.70;100.00
19447;BME280;9862;49.462;11.054;2023-04-27T05:44:50;98271.84;;;10.73;100.00
19447;BME280;9862;49.462;11.054;2023-04-27T05:47:17;98272.66;;;10.74;100.00
19447;BME280;9862;49.462;11.054;2023-04-27T05:49:43;98276.16;;;10.74;100.00
19447;BME280;9862;49.462;11.054;2023-04-27T05:52:10;98277.38;;;10.78;100.00
19447;BME280;9862;49.462;11.054;2023-04-27T05:54:36;98286.59;;;10.82;100.00
19447;BME280;9862;49.462;11.054;2023-04-27T05:57:03;98282.41;;;11.72;100.00
19447;BME280;9862;49.462;11.054;2023-04-27T05:59:31;98275.59;;;12.98;100.00
19447;BME280;9862;49.462;11.054;2023-04-27T06:01:58;98265.00;;;13.78;100.00
19447;BME280;9862;49.462;11.054;2023-04-27T06:04:24;98266.72;;;14.39;100.00
19447;BME280;9862;49.462;11.054;2023-04-27T06:06:51;98267.09;;;14.96;93.20
19447;BME280;9862;49.462;11.054;2023-04-27T06:09:18;98271.84;;;15.35;86.98
19447;BME280;9862;49.462;11.054;2023-04-27T06:11:44;98270.56;;;15.73;83.23
19447;BME280;9862;49.462;11.054;2023-04-27T06:14:11;98271.06;;;15.98;83.07
19447;BME280;9862;49.462;11.054;2023-04-27T06:16:39;98267.28;;;16.23;83.30
19447;BME280;9862;49.462;11.054;2023-04-27T06:19:06;98268.38;;;16.39;79.33
19447;BME280;9862;49.462;11.054;2023-04-27T06:21:32;98271.03;;;16.39;79.57
19447;BME280;9862;49.462;11.054;2023-04-27T06:23:59;98272.69;;;16.40;78.27
19447;BME280;9862;49.462;11.054;2023-04-27T06:26:26;98271.88;;;16.39;78.66
19447;BME280;9862;49.462;11.054;2023-04-27T06:28:53;98277.34;;;16.44;77.19
19447;BME280;9862;49.462;11.054;2023-04-27T06:31:19;98271.25;;;16.49;77.17
19447;BME280;9862;49.462;11.054;2023-04-27T06:33:47;98269.47;;;16.54;75.33
19447;BME280;9862;49.462;11.054;2023-04-27T06:36:14;98266.84;;;16.71;74.72
19447;BME280;9862;49.462;11.054;2023-04-27T06:38:40;98266.13;;;16.93;73.03
19447;BME280;9862;49.462;11.054;2023-04-27T06:41:07;98273.72;;;17.12;72.29
19447;BME280;9862;49.462;11.054;2023-04-27T06:43:34;98270.22;;;17.12;67.84
19447;BME280;9862;49.462;11.054;2023-04-27T06:46:00;98281.91;;;16.44;56.12
19447;BME280;9862;49.462;11.054;2023-04-27T06:48:27;98283.34;;;15.59;56.36
19447;BME280;9862;49.462;11.054;2023-04-27T06:50:55;98284.13;;;14.89;59.27
19447;BME280;9862;49.462;11.054;2023-04-27T06:53:22;98283.31;;;14.29;60.87
19447;BME280;9862;49.462;11.054;2023-04-27T06:55:48;98282.00;;;14.01;66.68
19447;BME280;9862;49.462;11.054;2023-04-27T06:58:15;98287.44;;;13.77;68.93
19447;BME280;9862;49.462;11.054;2023-04-27T07:00:41;98291.59;;;13.54;70.00
19447;BME280;9862;49.462;11.054;2023-04-27T07:03:08;98289.09;;;13.34;70.05
19447;BME280;9862;49.462;11.054;2023-04-27T07:05:35;98290.06;;;13.15;69.70
19447;BME280;9862;49.462;11.054;2023-04-27T07:08:03;98294.91;;;13.00;70.44
19447;BME280;9862;49.462;11.054;2023-04-27T07:10:30;98284.25;;;12.93;71.87
19447;BME280;9862;49.462;11.054;2023-04-27T07:12:56;98283.88;;;12.89;71.94
19447;BME280;9862;49.462;11.054;2023-04-27T07:15:23;98282.84;;;12.90;73.01
19447;BME280;9862;49.462;11.054;2023-04-27T07:17:50;98284.91;;;12.88;71.93
19447;BME280;9862;49.462;11.054;2023-04-27T07:20:16;98283.91;;;12.83;71.60
19447;BME280;9862;49.462;11.054;2023-04-27T07:22:43;98280.25;;;12.84;71.34
19447;BME280;9862;49.462;11.054;2023-04-27T07:25:11;98281.88;;;12.85;70.89
19447;BME280;9862;49.462;11.054;2023-04-27T07:27:38;98288.63;;;12.87;70.40
19447;BME280;9862;49.462;11.054;2023-04-27T07:30:06;98285.50;;;12.90;69.91
19447;BME280;9862;49.462;11.054;2023-04-27T07:32:34;98291.91;;;12.89;70.75
19447;BME280;9862;49.462;11.054;2023-04-27T07:35:01;98293.94;;;12.94;70.78
19447;BME280;9862;49.462;11.054;2023-04-27T07:37:28;98302.31;;;12.98;69.73
19447;BME280;9862;49.462;11.054;2023-04-27T07:39:54;98302.09;;;12.99;69.35
19447;BME280;9862;49.462;11.054;2023-04-27T07:42:23;98299.81;;;13.03;68.63
19447;BME280;9862;49.462;11.054;2023-04-27T07:44:50;98308.81;;;13.08;66.89
19447;BME280;9862;49.462;11.054;2023-04-27T07:47:17;98301.84;;;13.07;63.74
19447;BME280;9862;49.462;11.054;2023-04-27T07:49:44;98301.06;;;13.00;65.08
19447;BME280;9862;49.462;11.054;2023-04-27T07:52:11;98308.72;;;13.22;63.34
19447;BME280;9862;49.462;11.054;2023-04-27T07:54:38;98309.41;;;13.10;62.54
19447;BME280;9862;49.462;11.054;2023-04-27T07:57:07;98311.34;;;13.03;64.25
19447;BME280;9862;49.462;11.054;2023-04-27T07:59:34;98305.22;;;12.96;64.45
19447;BME280;9862;49.462;11.054;2023-04-27T08:02:01;98313.38;;;13.01;65.06
19447;BME280;9862;49.462;11.054;2023-04-27T08:04:28;98313.72;;;13.11;66.18
19447;BME280;9862;49.462;11.054;2023-04-27T08:06:54;98307.91;;;13.21;67.08
19447;BME280;9862;49.462;11.054;2023-04-27T08:09:21;98301.19;;;13.37;60.80
19447;BME280;9862;49.462;11.054;2023-04-27T08:11:48;98311.75;;;13.32;61.73
19447;BME280;9862;49.462;11.054;2023-04-27T08:14:14;98318.34;;;13.29;62.67
19447;BME280;9862;49.462;11.054;2023-04-27T08:16:43;98318.09;;;13.31;63.52
19447;BME280;9862;49.462;11.054;2023-04-27T08:19:09;98314.34;;;13.38;63.71
19447;BME280;9862;49.462;11.054;2023-04-27T08:21:36;98312.81;;;13.49;63.58
19447;BME280;9862;49.462;11.054;2023-04-27T08:24:04;98312.53;;;13.57;62.96
19447;BME280;9862;49.462;11.054;2023-04-27T08:26:31;98306.81;;;13.54;62.34
19447;BME280;9862;49.462;11.054;2023-04-27T08:28:59;98306.72;;;13.60;62.03
19447;BME280;9862;49.462;11.054;2023-04-27T08:31:26;98306.00;;;13.53;59.75
19447;BME280;9862;49.462;11.054;2023-04-27T08:33:55;98303.97;;;13.49;61.53
19447;BME280;9862;49.462;11.054;2023-04-27T08:36:22;98299.75;;;13.59;59.46
19447;BME280;9862;49.462;11.054;2023-04-27T08:38:50;98300.88;;;13.52;60.18
19447;BME280;9862;49.462;11.054;2023-04-27T08:41:17;98298.19;;;13.52;62.04
19447;BME280;9862;49.462;11.054;2023-04-27T08:43:45;98291.88;;;13.46;61.52
19447;BME280;9862;49.462;11.054;2023-04-27T08:46:17;98296.75;;;13.49;62.17
19447;BME280;9862;49.462;11.054;2023-04-27T08:48:43;98296.47;;;13.57;62.22
19447;BME280;9862;49.462;11.054;2023-04-27T08:51:13;98299.69;;;13.66;62.16
19447;BME280;9862;49.462;11.054;2023-04-27T08:53:45;98297.19;;;13.71;61.93
19447;BME280;9862;49.462;11.054;2023-04-27T08:56:13;98296.03;;;13.79;62.34
19447;BME280;9862;49.462;11.054;2023-04-27T08:58:39;98293.81;;;14.12;55.38
19447;BME280;9862;49.462;11.054;2023-04-27T09:01:06;98288.25;;;13.95;54.51
19447;BME280;9862;49.462;11.054;2023-04-27T09:03:34;98287.13;;;13.66;52.03
19447;BME280;9862;49.462;11.054;2023-04-27T09:06:01;98290.81;;;13.47;53.29
19447;BME280;9862;49.462;11.054;2023-04-27T09:08:40;98291.91;;;13.39;55.10
19447;BME280;9862;49.462;11.054;2023-04-27T09:11:06;98289.91;;;13.35;54.33
19447;BME280;9862;49.462;11.054;2023-04-27T09:13:36;98281.91;;;13.35;54.08
19447;BME280;9862;49.462;11.054;2023-04-27T09:16:03;98287.25;;;13.35;55.71
19447;BME280;9862;49.462;11.054;2023-04-27T09:18:33;98289.13;;;13.53;55.97
19447;BME280;9862;49.462;11.054;2023-04-27T09:21:01;98288.22;;;13.59;57.13
19447;BME280;9862;49.462;11.054;2023-04-27T09:23:31;98281.31;;;13.69;57.72
19447;BME280;9862;49.462;11.054;2023-04-27T09:25:59;98278.53;;;13.83;58.13
19447;BME280;9862;49.462;11.054;2023-04-27T09:28:27;98274.28;;;13.93;57.23
19447;BME280;9862;49.462;11.054;2023-04-27T09:30:56;98270.03;;;14.04;55.56
19447;BME280;9862;49.462;11.054;2023-04-27T09:33:23;98269.03;;;14.17;52.78
19447;BME280;9862;49.462;11.054;2023-04-27T09:35:50;98256.69;;;14.16;52.79
19447;BME280;9862;49.462;11.054;2023-04-27T09:38:18;98258.56;;;14.15;53.82
19447;BME280;9862;49.462;11.054;2023-04-27T09:40:46;98256.81;;;14.09;50.39
19447;BME280;9862;49.462;11.054;2023-04-27T09:43:13;98252.34;;;14.03;50.80
19447;BME280;9862;49.462;11.054;2023-04-27T09:45:40;98245.38;;;14.02;51.86
19447;BME280;9862;49.462;11.054;2023-04-27T09:48:07;98256.47;;;14.17;51.38
19447;BME280;9862;49.462;11.054;2023-04-27T09:50:35;98248.91;;;14.14;51.95
19447;BME280;9862;49.462;11.054;2023-04-27T09:53:04;98255.16;;;14.08;52.68
19447;BME280;9862;49.462;11.054;2023-04-27T09:55:35;98247.00;;;14.03;53.03
19447;BME280;9862;49.462;11.054;2023-04-27T09:58:30;98245.72;;;14.06;53.93
19447;BME280;9862;49.462;11.054;2023-04-27T10:01:09;98234.84;;;14.19;54.33
19447;BME280;9862;49.462;11.054;2023-04-27T10:03:44;98239.03;;;14.45;53.05
19447;BME280;9862;49.462;11.054;2023-04-27T10:09:34;98230.47;;;14.66;51.92
19447;BME280;9862;49.462;11.054;2023-04-27T10:12:13;98236.53;;;14.62;52.87
19447;BME280;9862;49.462;11.054;2023-04-27T10:14:52;98239.56;;;14.65;51.60
19447;BME280;9862;49.462;11.054;2023-04-27T10:17:23;98237.34;;;14.62;51.82
19447;BME280;9862;49.462;11.054;2023-04-27T10:19:57;98233.03;;;14.61;52.10
19447;BME280;9862;49.462;11.054;2023-04-27T10:22:36;98238.50;;;14.66;52.69
19447;BME280;9862;49.462;11.054;2023-04-27T10:25:12;98238.00;;;14.87;50.48
19447;BME280;9862;49.462;11.054;2023-04-27T10:27:39;98234.59;;;14.80;51.32
19447;BME280;9862;49.462;11.054;2023-04-27T10:30:10;98232.97;;;14.91;49.99
19447;BME280;9862;49.462;11.054;2023-04-27T10:32:37;98228.09;;;15.00;50.07
19447;BME280;9862;49.462;11.054;2023-04-27T10:35:07;98235.44;;;15.16;49.15
19447;BME280;9862;49.462;11.054;2023-04-27T10:37:38;98231.78;;;14.75;48.53
19447;BME280;9862;49.462;11.054;2023-04-27T10:40:07;98229.44;;;14.67;48.83
19447;BME280;9862;49.462;11.054;2023-04-27T10:42:35;98226.31;;;14.70;50.11
19447;BME280;9862;49.462;11.054;2023-04-27T10:45:01;98220.38;;;14.80;50.49
19447;BME280;9862;49.462;11.054;2023-04-27T10:47:38;98218.28;;;15.05;51.25
19447;BME280;9862;49.462;11.054;2023-04-27T10:50:07;98224.25;;;15.19;48.76
19447;BME280;9862;49.462;11.054;2023-04-27T10:52:35;98217.81;;;15.32;48.84
19447;BME280;9862;49.462;11.054;2023-04-27T10:55:15;98218.41;;;15.45;50.42
19447;BME280;9862;49.462;11.054;2023-04-27T10:57:47;98213.16;;;15.74;48.17
19447;BME280;9862;49.462;11.054;2023-04-27T11:00:15;98215.22;;;15.72;46.24
19447;BME280;9862;49.462;11.054;2023-04-27T11:02:44;98219.69;;;15.66;47.15
19447;BME280;9862;49.462;11.054;2023-04-27T11:05:17;98210.59;;;15.67;47.71
19447;BME280;9862;49.462;11.054;2023-04-27T11:07:44;98218.38;;;15.81;48.06
19447;BME280;9862;49.462;11.054;2023-04-27T11:10:15;98215.72;;;15.69;47.75
19447;BME280;9862;49.462;11.054;2023-04-27T11:12:42;98210.25;;;15.64;47.76
19447;BME280;9862;49.462;11.054;2023-04-27T11:15:09;98213.25;;;15.44;47.53
19447;BME280;9862;49.462;11.054;2023-04-27T11:17:36;98219.47;;;15.09;47.81
19447;BME280;9862;49.462;11.054;2023-04-27T11:20:05;98215.97;;;14.97;48.89
19447;BME280;9862;49.462;11.054;2023-04-27T11:22:33;98210.16;;;14.88;50.03
19447;BME280;9862;49.462;11.054;2023-04-27T11:25:00;98215.75;;;14.99;50.51
19447;BME280;9862;49.462;11.054;2023-04-27T11:27:35;98213.06;;;15.22;50.16
19447;BME280;9862;49.462;11.054;2023-04-27T11:30:03;98215.06;;;15.27;49.46
19447;BME280;9862;49.462;11.054;2023-04-27T11:32:31;98210.59;;;15.21;50.14
19447;BME280;9862;49.462;11.054;2023-04-27T11:34:58;98214.81;;;15.28;49.79
19447;BME280;9862;49.462;11.054;2023-04-27T11:37:26;98213.06;;;15.45;49.05
19447;BME280;9862;49.462;11.054;2023-04-27T11:39:54;98216.19;;;15.54;48.69
19447;BME280;9862;49.462;11.054;2023-04-27T11:42:22;98217.00;;;15.43;48.22
19447;BME280;9862;49.462;11.054;2023-04-27T11:44:52;98221.22;;;15.15;49.95
19447;BME280;9862;49.462;11.054;2023-04-27T11:47:20;98221.34;;;15.09;49.29
19447;BME280;9862;49.462;11.054;2023-04-27T11:49:47;98217.72;;;15.15;50.45
19447;BME280;9862;49.462;11.054;2023-04-27T11:52:14;98218.88;;;15.19;49.93
19447;BME280;9862;49.462;11.054;2023-04-27T11:54:47;98222.16;;;15.21;50.84
19447;BME280;9862;49.462;11.054;2023-04-27T11:57:15;98227.16;;;15.17;51.42
19447;BME280;9862;49.462;11.054;2023-04-27T11:59:41;98219.22;;;15.34;50.72
19447;BME280;9862;49.462;11.054;2023-04-27T12:02:08;98216.09;;;15.37;50.98
19447;BME280;9862;49.462;11.054;2023-04-27T12:04:35;98220.41;;;15.27;51.09
19447;BME280;9862;49.462;11.054;2023-04-27T12:07:01;98213.97;;;15.39;51.50
19447;BME280;9862;49.462;11.054;2023-04-27T12:09:29;98215.59;;;15.40;50.93
19447;BME280;9862;49.462;11.054;2023-04-27T12:11:57;98206.28;;;15.31;50.40
19447;BME280;9862;49.462;11.054;2023-04-27T12:14:23;98216.53;;;15.46;50.89
19447;BME280;9862;49.462;11.054;2023-04-27T12:16:50;98206.50;;;15.41;51.56
19447;BME280;9862;49.462;11.054;2023-04-27T12:19:17;98191.94;;;15.49;52.83
19447;BME280;9862;49.462;11.054;2023-04-27T12:21:43;98197.06;;;15.62;54.70
19447;BME280;9862;49.462;11.054;2023-04-27T12:24:10;98193.97;;;15.82;54.92
19447;BME280;9862;49.462;11.054;2023-04-27T12:26:37;98186.53;;;16.13;51.77
19447;BME280;9862;49.462;11.054;2023-04-27T12:29:05;98197.84;;;16.15;51.35
19447;BME280;9862;49.462;11.054;2023-04-27T12:31:32;98186.59;;;16.18;52.28
19447;BME280;9862;49.462;11.054;2023-04-27T12:33:59;98197.09;;;16.19;50.92
19447;BME280;9862;49.462;11.054;2023-04-27T12:36:26;98187.16;;;16.20;50.66
19447;BME280;9862;49.462;11.054;2023-04-27T12:38:57;98201.34;;;16.15;50.99
19447;BME280;9862;49.462;11.054;2023-04-27T12:41:24;98189.91;;;16.08;50.75
19447;BME280;9862;49.462;11.054;2023-04-27T12:43:51;98194.59;;;16.13;51.49
19447;BME280;9862;49.462;11.054;2023-04-27T12:46:19;98193.53;;;16.14;50.98
19447;BME280;9862;49.462;11.054;2023-04-27T12:48:45;98188.34;;;16.24;51.28
19447;BME280;9862;49.462;11.054;2023-04-27T12:51:12;98186.50;;;16.41;51.01
19447;BME280;9862;49.462;11.054;2023-04-27T12:53:39;98189.44;;;16.56;49.68
19447;BME280;9862;49.462;11.054;2023-04-27T12:56:05;98193.47;;;16.25;50.44
19447;BME280;9862;49.462;11.054;2023-04-27T12:58:32;98186.72;;;16.23;50.28
19447;BME280;9862;49.462;11.054;2023-04-27T13:00:58;98189.97;;;16.25;51.14